Terminal Aerodrome Forecast
Issued by NWS

Home | Current Version | Previous Version | Text Only | Print | Product List | Glossary On
Versions: 1 2 3 4 5 6 7 8 9 10 11 12 13 14 15 16 17 18 19
567
FTUS42 KTBW 060540
TAFRSW
TAF
KRSW 060540Z 0606/0706 02009KT P6SM FEW025 FEW035
     FM061000 02009KT P6SM SCT025 BKN035
     FM062200 34009KT P6SM VCSH SCT025 OVC035=

USA.gov is the U.S. government's official web portal to all federal, state and local government web resources and services.